sensor_id;sensor_type;location;lat;lon;timestamp;P1;durP1;ratioP1;P2;durP2;ratioP2
26486;SDS011;14425;56.136;40.360;2023-12-22T00:01:56;10.93;;;6.70;;
26486;SDS011;14425;56.136;40.360;2023-12-22T00:04:22;11.82;;;6.93;;
26486;SDS011;14425;56.136;40.360;2023-12-22T00:06:47;10.07;;;6.03;;
26486;SDS011;14425;56.136;40.360;2023-12-22T00:09:14;9.25;;;6.15;;
26486;SDS011;14425;56.136;40.360;2023-12-22T00:11:40;11.70;;;7.55;;
26486;SDS011;14425;56.136;40.360;2023-12-22T00:14:05;11.98;;;7.57;;
26486;SDS011;14425;56.136;40.360;2023-12-22T00:16:31;10.82;;;7.15;;
26486;SDS011;14425;56.136;40.360;2023-12-22T00:18:56;10.07;;;6.15;;
26486;SDS011;14425;56.136;40.360;2023-12-22T00:21:22;9.13;;;5.57;;
26486;SDS011;14425;56.136;40.360;2023-12-22T00:23:48;11.20;;;7.20;;
26486;SDS011;14425;56.136;40.360;2023-12-22T00:26:13;9.82;;;5.70;;
26486;SDS011;14425;56.136;40.360;2023-12-22T00:28:40;11.32;;;7.60;;
26486;SDS011;14425;56.136;40.360;2023-12-22T00:31:07;10.38;;;6.15;;
26486;SDS011;14425;56.136;40.360;2023-12-22T00:33:32;10.65;;;7.80;;
26486;SDS011;14425;56.136;40.360;2023-12-22T00:35:58;8.98;;;6.40;;
26486;SDS011;14425;56.136;40.360;2023-12-22T00:38:23;11.25;;;6.82;;
26486;SDS011;14425;56.136;40.360;2023-12-22T00:40:51;12.38;;;7.57;;
26486;SDS011;14425;56.136;40.360;2023-12-22T00:43:17;10.18;;;7.45;;
26486;SDS011;14425;56.136;40.360;2023-12-22T00:45:42;11.30;;;7.15;;
26486;SDS011;14425;56.136;40.360;2023-12-22T00:48:07;11.00;;;7.05;;
26486;SDS011;14425;56.136;40.360;2023-12-22T00:50:33;12.63;;;7.95;;
26486;SDS011;14425;56.136;40.360;2023-12-22T00:52:58;11.80;;;7.20;;
26486;SDS011;14425;56.136;40.360;2023-12-22T00:55:23;9.93;;;6.97;;
26486;SDS011;14425;56.136;40.360;2023-12-22T00:57:49;10.48;;;7.13;;
26486;SDS011;14425;56.136;40.360;2023-12-22T01:00:15;11.75;;;8.45;;
26486;SDS011;14425;56.136;40.360;2023-12-22T01:02:40;10.90;;;6.93;;
26486;SDS011;14425;56.136;40.360;2023-12-22T01:05:06;12.70;;;7.28;;
26486;SDS011;14425;56.136;40.360;2023-12-22T01:07:31;11.85;;;7.68;;
26486;SDS011;14425;56.136;40.360;2023-12-22T01:09:56;10.02;;;7.10;;
26486;SDS011;14425;56.136;40.360;2023-12-22T01:12:31;13.15;;;7.57;;
26486;SDS011;14425;56.136;40.360;2023-12-22T01:14:56;13.35;;;7.45;;
26486;SDS011;14425;56.136;40.360;2023-12-22T01:17:22;12.98;;;8.40;;
26486;SDS011;14425;56.136;40.360;2023-12-22T01:19:48;12.23;;;7.78;;
26486;SDS011;14425;56.136;40.360;2023-12-22T01:22:13;14.38;;;8.50;;
26486;SDS011;14425;56.136;40.360;2023-12-22T01:24:39;12.55;;;7.53;;
26486;SDS011;14425;56.136;40.360;2023-12-22T01:27:08;11.52;;;7.70;;
26486;SDS011;14425;56.136;40.360;2023-12-22T01:29:33;13.63;;;7.20;;
26486;SDS011;14425;56.136;40.360;2023-12-22T01:31:59;11.68;;;8.38;;
26486;SDS011;14425;56.136;40.360;2023-12-22T01:34:24;13.10;;;8.07;;
26486;SDS011;14425;56.136;40.360;2023-12-22T01:36:50;9.80;;;7.25;;
26486;SDS011;14425;56.136;40.360;2023-12-22T01:39:15;13.18;;;7.68;;
26486;SDS011;14425;56.136;40.360;2023-12-22T01:41:41;14.23;;;7.72;;
26486;SDS011;14425;56.136;40.360;2023-12-22T01:44:06;12.27;;;8.23;;
26486;SDS011;14425;56.136;40.360;2023-12-22T01:46:32;10.48;;;7.07;;
26486;SDS011;14425;56.136;40.360;2023-12-22T01:48:58;12.95;;;8.15;;
26486;SDS011;14425;56.136;40.360;2023-12-22T01:51:26;10.30;;;6.90;;
26486;SDS011;14425;56.136;40.360;2023-12-22T01:53:54;12.60;;;7.53;;
26486;SDS011;14425;56.136;40.360;2023-12-22T01:56:20;12.85;;;7.88;;
26486;SDS011;14425;56.136;40.360;2023-12-22T01:58:46;13.50;;;7.63;;
26486;SDS011;14425;56.136;40.360;2023-12-22T02:01:11;13.38;;;8.48;;
26486;SDS011;14425;56.136;40.360;2023-12-22T02:03:37;13.95;;;8.93;;
26486;SDS011;14425;56.136;40.360;2023-12-22T02:06:03;14.95;;;8.02;;
26486;SDS011;14425;56.136;40.360;2023-12-22T02:08:29;13.32;;;8.25;;
26486;SDS011;14425;56.136;40.360;2023-12-22T02:10:56;16.55;;;9.70;;
26486;SDS011;14425;56.136;40.360;2023-12-22T02:13:22;11.23;;;7.38;;
26486;SDS011;14425;56.136;40.360;2023-12-22T02:15:47;9.77;;;6.40;;
26486;SDS011;14425;56.136;40.360;2023-12-22T02:18:18;12.82;;;7.13;;
26486;SDS011;14425;56.136;40.360;2023-12-22T02:20:46;13.07;;;8.10;;
26486;SDS011;14425;56.136;40.360;2023-12-22T02:23:12;14.27;;;8.32;;
26486;SDS011;14425;56.136;40.360;2023-12-22T02:25:38;13.07;;;7.93;;
26486;SDS011;14425;56.136;40.360;2023-12-22T02:28:09;15.85;;;8.35;;
26486;SDS011;14425;56.136;40.360;2023-12-22T02:33:13;12.15;;;7.40;;
26486;SDS011;14425;56.136;40.360;2023-12-22T02:35:39;14.68;;;8.48;;
26486;SDS011;14425;56.136;40.360;2023-12-22T02:38:06;17.52;;;9.82;;
26486;SDS011;14425;56.136;40.360;2023-12-22T02:40:32;18.42;;;10.63;;
26486;SDS011;14425;56.136;40.360;2023-12-22T02:42:58;12.70;;;7.97;;
26486;SDS011;14425;56.136;40.360;2023-12-22T02:45:23;16.83;;;7.80;;
26486;SDS011;14425;56.136;40.360;2023-12-22T02:47:49;14.00;;;8.70;;
26486;SDS011;14425;56.136;40.360;2023-12-22T02:50:14;17.48;;;8.18;;
26486;SDS011;14425;56.136;40.360;2023-12-22T02:52:40;11.27;;;6.70;;
26486;SDS011;14425;56.136;40.360;2023-12-22T02:55:06;14.23;;;7.60;;
26486;SDS011;14425;56.136;40.360;2023-12-22T02:57:31;12.77;;;8.05;;
26486;SDS011;14425;56.136;40.360;2023-12-22T02:59:57;15.98;;;8.23;;
26486;SDS011;14425;56.136;40.360;2023-12-22T03:02:22;11.45;;;6.45;;
26486;SDS011;14425;56.136;40.360;2023-12-22T03:04:50;14.88;;;8.73;;
26486;SDS011;14425;56.136;40.360;2023-12-22T03:07:16;13.07;;;7.90;;
26486;SDS011;14425;56.136;40.360;2023-12-22T03:09:41;15.57;;;9.43;;
26486;SDS011;14425;56.136;40.360;2023-12-22T03:12:07;13.38;;;7.63;;
26486;SDS011;14425;56.136;40.360;2023-12-22T03:14:33;10.32;;;6.88;;
26486;SDS011;14425;56.136;40.360;2023-12-22T03:16:59;14.82;;;8.25;;
26486;SDS011;14425;56.136;40.360;2023-12-22T03:19:25;10.93;;;7.95;;
26486;SDS011;14425;56.136;40.360;2023-12-22T03:21:50;13.85;;;8.10;;
26486;SDS011;14425;56.136;40.360;2023-12-22T03:24:16;12.55;;;7.45;;
26486;SDS011;14425;56.136;40.360;2023-12-22T03:26:41;13.32;;;8.00;;
26486;SDS011;14425;56.136;40.360;2023-12-22T03:29:06;13.48;;;7.32;;
26486;SDS011;14425;56.136;40.360;2023-12-22T03:31:32;10.15;;;6.32;;
26486;SDS011;14425;56.136;40.360;2023-12-22T03:33:57;13.70;;;7.38;;
26486;SDS011;14425;56.136;40.360;2023-12-22T03:36:23;11.48;;;7.03;;
26486;SDS011;14425;56.136;40.360;2023-12-22T03:38:51;12.95;;;7.53;;
26486;SDS011;14425;56.136;40.360;2023-12-22T03:41:16;12.13;;;8.23;;
26486;SDS011;14425;56.136;40.360;2023-12-22T03:43:42;12.85;;;7.20;;
26486;SDS011;14425;56.136;40.360;2023-12-22T03:46:07;15.02;;;8.27;;
26486;SDS011;14425;56.136;40.360;2023-12-22T03:48:33;12.77;;;8.07;;
26486;SDS011;14425;56.136;40.360;2023-12-22T03:50:58;16.40;;;8.10;;
26486;SDS011;14425;56.136;40.360;2023-12-22T03:53:23;14.40;;;6.93;;
26486;SDS011;14425;56.136;40.360;2023-12-22T03:55:52;11.77;;;7.72;;
26486;SDS011;14425;56.136;40.360;2023-12-22T03:58:17;16.90;;;7.57;;
26486;SDS011;14425;56.136;40.360;2023-12-22T04:00:43;14.43;;;7.72;;
26486;SDS011;14425;56.136;40.360;2023-12-22T04:03:08;12.07;;;7.80;;
26486;SDS011;14425;56.136;40.360;2023-12-22T04:05:33;12.88;;;8.32;;
26486;SDS011;14425;56.136;40.360;2023-12-22T04:07:59;10.57;;;6.30;;
26486;SDS011;14425;56.136;40.360;2023-12-22T04:10:24;11.48;;;7.65;;
26486;SDS011;14425;56.136;40.360;2023-12-22T04:12:50;13.23;;;8.40;;
26486;SDS011;14425;56.136;40.360;2023-12-22T04:15:16;17.42;;;8.38;;
26486;SDS011;14425;56.136;40.360;2023-12-22T04:17:41;13.82;;;8.63;;
26486;SDS011;14425;56.136;40.360;2023-12-22T04:20:06;15.95;;;8.50;;
26486;SDS011;14425;56.136;40.360;2023-12-22T04:22:32;12.00;;;7.28;;
26486;SDS011;14425;56.136;40.360;2023-12-22T04:24:58;13.98;;;8.18;;
26486;SDS011;14425;56.136;40.360;2023-12-22T04:27:25;12.40;;;8.38;;
26486;SDS011;14425;56.136;40.360;2023-12-22T04:29:51;14.07;;;8.35;;
26486;SDS011;14425;56.136;40.360;2023-12-22T04:32:16;15.02;;;10.38;;
26486;SDS011;14425;56.136;40.360;2023-12-22T04:34:41;18.52;;;8.60;;
26486;SDS011;14425;56.136;40.360;2023-12-22T04:37:07;16.45;;;10.10;;
26486;SDS011;14425;56.136;40.360;2023-12-22T04:39:32;17.77;;;10.20;;
26486;SDS011;14425;56.136;40.360;2023-12-22T04:41:57;17.38;;;10.63;;
26486;SDS011;14425;56.136;40.360;2023-12-22T04:44:23;17.20;;;8.82;;
26486;SDS011;14425;56.136;40.360;2023-12-22T04:46:49;14.00;;;9.50;;
26486;SDS011;14425;56.136;40.360;2023-12-22T04:49:17;21.05;;;9.73;;
26486;SDS011;14425;56.136;40.360;2023-12-22T04:51:43;17.40;;;9.73;;
26486;SDS011;14425;56.136;40.360;2023-12-22T04:54:08;16.70;;;9.77;;
26486;SDS011;14425;56.136;40.360;2023-12-22T04:56:34;19.13;;;10.18;;
26486;SDS011;14425;56.136;40.360;2023-12-22T05:01:30;20.53;;;10.70;;
26486;SDS011;14425;56.136;40.360;2023-12-22T05:03:56;18.70;;;11.70;;
26486;SDS011;14425;56.136;40.360;2023-12-22T05:06:21;16.05;;;9.98;;
26486;SDS011;14425;56.136;40.360;2023-12-22T05:08:47;19.92;;;11.57;;
26486;SDS011;14425;56.136;40.360;2023-12-22T05:11:12;20.33;;;10.05;;
26486;SDS011;14425;56.136;40.360;2023-12-22T05:13:38;19.95;;;11.07;;
26486;SDS011;14425;56.136;40.360;2023-12-22T05:16:03;19.65;;;11.00;;
26486;SDS011;14425;56.136;40.360;2023-12-22T05:18:29;20.63;;;10.38;;
26486;SDS011;14425;56.136;40.360;2023-12-22T05:20:55;23.63;;;12.50;;
26486;SDS011;14425;56.136;40.360;2023-12-22T05:23:20;19.85;;;10.88;;
26486;SDS011;14425;56.136;40.360;2023-12-22T05:25:46;19.60;;;12.38;;
26486;SDS011;14425;56.136;40.360;2023-12-22T05:28:11;21.10;;;11.18;;
26486;SDS011;14425;56.136;40.360;2023-12-22T05:30:36;16.98;;;10.85;;
26486;SDS011;14425;56.136;40.360;2023-12-22T05:33:02;23.60;;;12.10;;
26486;SDS011;14425;56.136;40.360;2023-12-22T05:35:27;19.33;;;11.02;;
26486;SDS011;14425;56.136;40.360;2023-12-22T05:37:53;20.45;;;11.20;;
26486;SDS011;14425;56.136;40.360;2023-12-22T05:40:18;21.23;;;11.70;;
26486;SDS011;14425;56.136;40.360;2023-12-22T05:42:43;22.80;;;12.13;;
26486;SDS011;14425;56.136;40.360;2023-12-22T05:45:09;20.10;;;12.15;;
26486;SDS011;14425;56.136;40.360;2023-12-22T05:47:36;21.60;;;11.02;;
26486;SDS011;14425;56.136;40.360;2023-12-22T05:50:02;22.88;;;13.32;;
26486;SDS011;14425;56.136;40.360;2023-12-22T05:52:29;21.58;;;11.68;;
26486;SDS011;14425;56.136;40.360;2023-12-22T05:54:55;22.02;;;12.13;;
26486;SDS011;14425;56.136;40.360;2023-12-22T05:57:20;27.33;;;11.20;;
26486;SDS011;14425;56.136;40.360;2023-12-22T05:59:45;27.10;;;11.63;;
26486;SDS011;14425;56.136;40.360;2023-12-22T06:02:11;21.73;;;12.30;;
26486;SDS011;14425;56.136;40.360;2023-12-22T06:04:36;25.13;;;13.77;;
26486;SDS011;14425;56.136;40.360;2023-12-22T06:07:02;25.25;;;13.07;;
26486;SDS011;14425;56.136;40.360;2023-12-22T06:09:27;27.00;;;13.35;;
26486;SDS011;14425;56.136;40.360;2023-12-22T06:11:53;22.33;;;12.18;;
26486;SDS011;14425;56.136;40.360;2023-12-22T06:14:19;24.17;;;13.50;;
26486;SDS011;14425;56.136;40.360;2023-12-22T06:16:44;16.08;;;9.35;;
26486;SDS011;14425;56.136;40.360;2023-12-22T06:19:10;25.13;;;13.10;;
26486;SDS011;14425;56.136;40.360;2023-12-22T06:21:38;32.60;;;14.32;;
26486;SDS011;14425;56.136;40.360;2023-12-22T06:24:04;25.45;;;13.85;;
26486;SDS011;14425;56.136;40.360;2023-12-22T06:26:29;24.98;;;13.20;;
26486;SDS011;14425;56.136;40.360;2023-12-22T06:28:55;27.80;;;13.75;;
26486;SDS011;14425;56.136;40.360;2023-12-22T06:31:21;20.08;;;12.27;;
26486;SDS011;14425;56.136;40.360;2023-12-22T06:33:47;22.92;;;12.77;;
26486;SDS011;14425;56.136;40.360;2023-12-22T06:36:19;25.30;;;13.57;;
26486;SDS011;14425;56.136;40.360;2023-12-22T06:38:45;26.45;;;13.40;;
26486;SDS011;14425;56.136;40.360;2023-12-22T06:41:20;25.50;;;13.43;;
26486;SDS011;14425;56.136;40.360;2023-12-22T06:43:46;24.45;;;13.73;;
26486;SDS011;14425;56.136;40.360;2023-12-22T06:46:15;22.38;;;12.40;;
26486;SDS011;14425;56.136;40.360;2023-12-22T06:48:41;23.92;;;13.82;;
26486;SDS011;14425;56.136;40.360;2023-12-22T06:51:07;22.33;;;13.88;;
26486;SDS011;14425;56.136;40.360;2023-12-22T06:53:32;21.45;;;11.05;;
26486;SDS011;14425;56.136;40.360;2023-12-22T06:55:57;22.92;;;11.70;;
26486;SDS011;14425;56.136;40.360;2023-12-22T06:58:23;21.98;;;11.27;;
26486;SDS011;14425;56.136;40.360;2023-12-22T07:00:51;20.90;;;9.80;;
26486;SDS011;14425;56.136;40.360;2023-12-22T07:03:16;15.95;;;11.23;;
26486;SDS011;14425;56.136;40.360;2023-12-22T07:05:42;18.67;;;10.23;;
26486;SDS011;14425;56.136;40.360;2023-12-22T07:08:08;14.13;;;8.85;;
26486;SDS011;14425;56.136;40.360;2023-12-22T07:10:33;19.92;;;10.80;;
26486;SDS011;14425;56.136;40.360;2023-12-22T07:12:59;14.95;;;8.55;;
26486;SDS011;14425;56.136;40.360;2023-12-22T07:15:25;18.83;;;9.32;;
26486;SDS011;14425;56.136;40.360;2023-12-22T07:17:50;17.60;;;10.43;;
26486;SDS011;14425;56.136;40.360;2023-12-22T07:20:16;17.52;;;9.30;;
26486;SDS011;14425;56.136;40.360;2023-12-22T07:22:44;18.63;;;10.23;;
26486;SDS011;14425;56.136;40.360;2023-12-22T07:25:09;15.15;;;8.23;;
26486;SDS011;14425;56.136;40.360;2023-12-22T07:27:35;14.13;;;8.85;;
26486;SDS011;14425;56.136;40.360;2023-12-22T07:30:00;13.57;;;8.38;;
26486;SDS011;14425;56.136;40.360;2023-12-22T07:32:25;17.65;;;9.38;;
26486;SDS011;14425;56.136;40.360;2023-12-22T07:34:51;24.52;;;10.77;;
26486;SDS011;14425;56.136;40.360;2023-12-22T07:37:16;17.45;;;10.80;;
26486;SDS011;14425;56.136;40.360;2023-12-22T07:39:42;17.73;;;9.93;;
26486;SDS011;14425;56.136;40.360;2023-12-22T07:42:10;19.52;;;9.60;;
26486;SDS011;14425;56.136;40.360;2023-12-22T07:44:35;17.63;;;9.70;;
26486;SDS011;14425;56.136;40.360;2023-12-22T07:47:01;18.00;;;9.23;;
26486;SDS011;14425;56.136;40.360;2023-12-22T07:49:27;17.67;;;11.07;;
26486;SDS011;14425;56.136;40.360;2023-12-22T07:51:53;15.77;;;9.65;;
26486;SDS011;14425;56.136;40.360;2023-12-22T07:54:19;17.27;;;9.82;;
26486;SDS011;14425;56.136;40.360;2023-12-22T07:56:45;21.98;;;12.40;;
26486;SDS011;14425;56.136;40.360;2023-12-22T07:59:10;22.00;;;10.68;;
26486;SDS011;14425;56.136;40.360;2023-12-22T08:01:35;16.90;;;10.40;;
26486;SDS011;14425;56.136;40.360;2023-12-22T08:04:01;19.70;;;10.40;;
26486;SDS011;14425;56.136;40.360;2023-12-22T08:06:26;22.50;;;11.05;;
26486;SDS011;14425;56.136;40.360;2023-12-22T08:08:52;19.00;;;10.43;;
26486;SDS011;14425;56.136;40.360;2023-12-22T08:11:17;18.80;;;11.27;;
26486;SDS011;14425;56.136;40.360;2023-12-22T08:13:45;14.40;;;9.18;;
26486;SDS011;14425;56.136;40.360;2023-12-22T08:16:10;16.30;;;10.10;;
26486;SDS011;14425;56.136;40.360;2023-12-22T08:18:36;18.15;;;9.95;;
26486;SDS011;14425;56.136;40.360;2023-12-22T08:21:01;12.20;;;7.43;;
26486;SDS011;14425;56.136;40.360;2023-12-22T08:23:26;14.07;;;8.68;;
26486;SDS011;14425;56.136;40.360;2023-12-22T08:25:52;19.23;;;9.45;;
26486;SDS011;14425;56.136;40.360;2023-12-22T08:28:17;18.92;;;9.38;;
26486;SDS011;14425;56.136;40.360;2023-12-22T08:30:43;16.88;;;8.13;;
26486;SDS011;14425;56.136;40.360;2023-12-22T08:33:08;18.90;;;8.57;;
26486;SDS011;14425;56.136;40.360;2023-12-22T08:35:34;12.45;;;6.60;;
26486;SDS011;14425;56.136;40.360;2023-12-22T08:38:00;12.40;;;8.23;;
26486;SDS011;14425;56.136;40.360;2023-12-22T08:40:25;12.05;;;7.63;;
26486;SDS011;14425;56.136;40.360;2023-12-22T08:42:54;11.25;;;6.57;;
26486;SDS011;14425;56.136;40.360;2023-12-22T08:45:20;12.60;;;7.15;;
26486;SDS011;14425;56.136;40.360;2023-12-22T08:47:45;10.13;;;6.53;;
26486;SDS011;14425;56.136;40.360;2023-12-22T08:50:11;9.63;;;6.03;;
26486;SDS011;14425;56.136;40.360;2023-12-22T08:52:38;12.32;;;6.35;;
26486;SDS011;14425;56.136;40.360;2023-12-22T08:55:03;12.55;;;6.40;;
26486;SDS011;14425;56.136;40.360;2023-12-22T08:57:30;10.63;;;6.28;;
26486;SDS011;14425;56.136;40.360;2023-12-22T08:59:56;10.45;;;5.72;;
26486;SDS011;14425;56.136;40.360;2023-12-22T09:02:22;9.48;;;4.80;;
26486;SDS011;14425;56.136;40.360;2023-12-22T09:04:47;8.32;;;6.07;;
26486;SDS011;14425;56.136;40.360;2023-12-22T09:07:13;9.15;;;5.72;;
26486;SDS011;14425;56.136;40.360;2023-12-22T09:09:38;7.50;;;5.38;;
26486;SDS011;14425;56.136;40.360;2023-12-22T09:12:03;7.45;;;5.07;;
26486;SDS011;14425;56.136;40.360;2023-12-22T09:14:29;8.10;;;5.75;;
26486;SDS011;14425;56.136;40.360;2023-12-22T09:16:55;7.88;;;5.13;;
26486;SDS011;14425;56.136;40.360;2023-12-22T09:19:21;8.50;;;5.22;;
26486;SDS011;14425;56.136;40.360;2023-12-22T09:21:47;9.45;;;5.32;;
26486;SDS011;14425;56.136;40.360;2023-12-22T09:24:12;7.63;;;4.63;;
26486;SDS011;14425;56.136;40.360;2023-12-22T09:26:37;7.68;;;4.90;;
26486;SDS011;14425;56.136;40.360;2023-12-22T09:29:03;9.82;;;5.57;;
26486;SDS011;14425;56.136;40.360;2023-12-22T09:31:28;11.05;;;4.97;;
26486;SDS011;14425;56.136;40.360;2023-12-22T09:33:54;11.05;;;4.68;;
26486;SDS011;14425;56.136;40.360;2023-12-22T09:36:19;9.05;;;4.53;;
26486;SDS011;14425;56.136;40.360;2023-12-22T09:38:45;6.15;;;4.40;;
26486;SDS011;14425;56.136;40.360;2023-12-22T09:41:10;5.60;;;4.03;;
26486;SDS011;14425;56.136;40.360;2023-12-22T09:43:35;11.13;;;5.07;;
26486;SDS011;14425;56.136;40.360;2023-12-22T09:46:02;10.27;;;5.00;;
26486;SDS011;14425;56.136;40.360;2023-12-22T09:48:28;9.40;;;4.88;;
26486;SDS011;14425;56.136;40.360;2023-12-22T09:50:54;6.80;;;4.45;;
26486;SDS011;14425;56.136;40.360;2023-12-22T09:53:20;6.40;;;4.55;;
26486;SDS011;14425;56.136;40.360;2023-12-22T09:55:46;7.78;;;4.82;;
26486;SDS011;14425;56.136;40.360;2023-12-22T09:58:13;8.35;;;5.50;;
26486;SDS011;14425;56.136;40.360;2023-12-22T10:00:42;7.90;;;4.78;;
26486;SDS011;14425;56.136;40.360;2023-12-22T10:03:07;7.95;;;5.93;;
26486;SDS011;14425;56.136;40.360;2023-12-22T10:05:34;7.50;;;4.80;;
26486;SDS011;14425;56.136;40.360;2023-12-22T10:08:00;7.90;;;4.53;;
26486;SDS011;14425;56.136;40.360;2023-12-22T10:10:27;12.18;;;6.40;;
26486;SDS011;14425;56.136;40.360;2023-12-22T10:12:54;8.32;;;4.78;;
26486;SDS011;14425;56.136;40.360;2023-12-22T10:15:20;11.52;;;5.60;;
26486;SDS011;14425;56.136;40.360;2023-12-22T10:17:50;7.45;;;4.40;;
26486;SDS011;14425;56.136;40.360;2023-12-22T10:20:15;9.40;;;5.15;;
26486;SDS011;14425;56.136;40.360;2023-12-22T10:22:41;8.88;;;5.35;;
26486;SDS011;14425;56.136;40.360;2023-12-22T10:25:07;9.55;;;5.20;;
26486;SDS011;14425;56.136;40.360;2023-12-22T10:27:33;7.03;;;4.90;;
26486;SDS011;14425;56.136;40.360;2023-12-22T10:30:00;6.55;;;4.93;;
26486;SDS011;14425;56.136;40.360;2023-12-22T10:32:26;7.43;;;4.78;;
26486;SDS011;14425;56.136;40.360;2023-12-22T10:34:51;6.68;;;5.05;;
26486;SDS011;14425;56.136;40.360;2023-12-22T10:37:17;9.70;;;5.68;;
26486;SDS011;14425;56.136;40.360;2023-12-22T10:39:43;8.45;;;4.72;;
26486;SDS011;14425;56.136;40.360;2023-12-22T10:42:11;7.28;;;4.88;;
26486;SDS011;14425;56.136;40.360;2023-12-22T10:44:36;8.02;;;5.28;;
26486;SDS011;14425;56.136;40.360;2023-12-22T10:47:05;9.00;;;4.60;;
26486;SDS011;14425;56.136;40.360;2023-12-22T10:49:30;9.32;;;5.78;;
26486;SDS011;14425;56.136;40.360;2023-12-22T10:51:56;10.35;;;5.30;;
26486;SDS011;14425;56.136;40.360;2023-12-22T10:54:22;9.63;;;5.32;;
26486;SDS011;14425;56.136;40.360;2023-12-22T10:56:47;6.70;;;4.72;;
26486;SDS011;14425;56.136;40.360;2023-12-22T10:59:16;8.55;;;4.43;;
26486;SDS011;14425;56.136;40.360;2023-12-22T11:01:42;8.00;;;5.45;;
26486;SDS011;14425;56.136;40.360;2023-12-22T11:04:09;8.48;;;4.57;;
26486;SDS011;14425;56.136;40.360;2023-12-22T11:09:07;11.47;;;4.90;;
26486;SDS011;14425;56.136;40.360;2023-12-22T11:11:34;6.38;;;4.43;;
26486;SDS011;14425;56.136;40.360;2023-12-22T11:14:00;7.40;;;4.85;;
26486;SDS011;14425;56.136;40.360;2023-12-22T11:16:27;8.45;;;4.97;;
26486;SDS011;14425;56.136;40.360;2023-12-22T11:18:53;8.27;;;4.50;;
26486;SDS011;14425;56.136;40.360;2023-12-22T11:21:22;5.10;;;3.58;;
26486;SDS011;14425;56.136;40.360;2023-12-22T11:23:49;7.30;;;4.00;;
26486;SDS011;14425;56.136;40.360;2023-12-22T11:26:17;6.22;;;4.18;;
26486;SDS011;14425;56.136;40.360;2023-12-22T11:28:44;7.93;;;5.18;;
26486;SDS011;14425;56.136;40.360;2023-12-22T11:31:10;7.03;;;4.53;;
26486;SDS011;14425;56.136;40.360;2023-12-22T11:33:45;7.78;;;4.53;;
26486;SDS011;14425;56.136;40.360;2023-12-22T11:36:12;8.07;;;4.63;;
26486;SDS011;14425;56.136;40.360;2023-12-22T11:38:39;6.78;;;4.65;;
26486;SDS011;14425;56.136;40.360;2023-12-22T11:41:05;7.18;;;4.50;;
26486;SDS011;14425;56.136;40.360;2023-12-22T11:43:31;7.82;;;4.53;;
26486;SDS011;14425;56.136;40.360;2023-12-22T11:46:01;8.48;;;4.10;;
26486;SDS011;14425;56.136;40.360;2023-12-22T11:48:26;6.90;;;4.35;;
26486;SDS011;14425;56.136;40.360;2023-12-22T11:50:52;9.82;;;5.32;;
26486;SDS011;14425;56.136;40.360;2023-12-22T11:53:21;7.25;;;3.92;;
26486;SDS011;14425;56.136;40.360;2023-12-22T11:56:06;5.25;;;4.05;;
26486;SDS011;14425;56.136;40.360;2023-12-22T12:01:05;5.55;;;4.03;;
26486;SDS011;14425;56.136;40.360;2023-12-22T12:03:31;5.90;;;4.10;;
26486;SDS011;14425;56.136;40.360;2023-12-22T12:08:42;5.70;;;3.67;;
26486;SDS011;14425;56.136;40.360;2023-12-22T12:11:07;6.97;;;3.42;;
26486;SDS011;14425;56.136;40.360;2023-12-22T12:13:33;5.60;;;3.65;;
26486;SDS011;14425;56.136;40.360;2023-12-22T12:16:01;6.28;;;4.60;;
26486;SDS011;14425;56.136;40.360;2023-12-22T12:18:28;6.30;;;3.78;;
26486;SDS011;14425;56.136;40.360;2023-12-22T12:20:54;6.20;;;4.15;;
26486;SDS011;14425;56.136;40.360;2023-12-22T12:23:19;5.32;;;3.70;;
26486;SDS011;14425;56.136;40.360;2023-12-22T12:25:45;4.35;;;3.42;;
26486;SDS011;14425;56.136;40.360;2023-12-22T12:28:12;5.63;;;3.50;;
26486;SDS011;14425;56.136;40.360;2023-12-22T12:30:39;5.03;;;3.65;;
26486;SDS011;14425;56.136;40.360;2023-12-22T12:33:08;4.28;;;3.35;;
26486;SDS011;14425;56.136;40.360;2023-12-22T12:35:34;7.78;;;3.70;;
26486;SDS011;14425;56.136;40.360;2023-12-22T12:38:00;4.72;;;3.72;;
26486;SDS011;14425;56.136;40.360;2023-12-22T12:40:27;4.72;;;3.50;;
26486;SDS011;14425;56.136;40.360;2023-12-22T12:42:54;5.30;;;3.22;;
26486;SDS011;14425;56.136;40.360;2023-12-22T12:45:24;7.47;;;3.95;;
26486;SDS011;14425;56.136;40.360;2023-12-22T12:50:22;5.18;;;4.32;;
26486;SDS011;14425;56.136;40.360;2023-12-22T12:52:48;6.40;;;3.75;;
26486;SDS011;14425;56.136;40.360;2023-12-22T12:55:17;7.00;;;3.38;;
26486;SDS011;14425;56.136;40.360;2023-12-22T12:57:44;4.22;;;3.22;;
26486;SDS011;14425;56.136;40.360;2023-12-22T13:00:09;5.68;;;3.33;;
26486;SDS011;14425;56.136;40.360;2023-12-22T13:02:38;5.47;;;3.65;;
26486;SDS011;14425;56.136;40.360;2023-12-22T13:07:51;6.30;;;3.28;;
26486;SDS011;14425;56.136;40.360;2023-12-22T13:10:20;4.88;;;3.55;;
26486;SDS011;14425;56.136;40.360;2023-12-22T13:12:46;5.82;;;3.80;;
26486;SDS011;14425;56.136;40.360;2023-12-22T13:15:11;4.82;;;4.03;;
26486;SDS011;14425;56.136;40.360;2023-12-22T13:17:36;5.68;;;4.03;;
26486;SDS011;14425;56.136;40.360;2023-12-22T13:20:02;5.00;;;4.35;;
26486;SDS011;14425;56.136;40.360;2023-12-22T13:25:23;6.47;;;4.35;;
26486;SDS011;14425;56.136;40.360;2023-12-22T13:34:24;4.95;;;4.07;;
26486;SDS011;14425;56.136;40.360;2023-12-22T13:36:50;5.68;;;3.67;;
26486;SDS011;14425;56.136;40.360;2023-12-22T13:42:58;8.38;;;4.72;;
26486;SDS011;14425;56.136;40.360;2023-12-22T13:45:24;7.40;;;4.20;;
26486;SDS011;14425;56.136;40.360;2023-12-22T13:50:58;7.88;;;4.50;;
26486;SDS011;14425;56.136;40.360;2023-12-22T13:53:26;7.00;;;5.10;;
26486;SDS011;14425;56.136;40.360;2023-12-22T13:55:58;7.40;;;5.28;;
26486;SDS011;14425;56.136;40.360;2023-12-22T13:58:24;8.80;;;5.10;;
26486;SDS011;14425;56.136;40.360;2023-12-22T14:00:50;5.45;;;4.05;;
26486;SDS011;14425;56.136;40.360;2023-12-22T14:03:15;6.35;;;4.68;;
26486;SDS011;14425;56.136;40.360;2023-12-22T14:08:12;6.20;;;4.27;;
26486;SDS011;14425;56.136;40.360;2023-12-22T14:10:37;6.30;;;4.47;;
26486;SDS011;14425;56.136;40.360;2023-12-22T14:13:02;8.55;;;4.97;;
26486;SDS011;14425;56.136;40.360;2023-12-22T14:15:28;7.85;;;4.60;;
26486;SDS011;14425;56.136;40.360;2023-12-22T14:17:56;8.02;;;5.10;;
26486;SDS011;14425;56.136;40.360;2023-12-22T14:20:22;9.05;;;6.15;;
26486;SDS011;14425;56.136;40.360;2023-12-22T14:22:47;8.13;;;4.43;;
26486;SDS011;14425;56.136;40.360;2023-12-22T14:25:13;7.15;;;5.15;;
26486;SDS011;14425;56.136;40.360;2023-12-22T14:27:41;8.68;;;5.80;;
26486;SDS011;14425;56.136;40.360;2023-12-22T14:30:06;7.70;;;4.97;;
26486;SDS011;14425;56.136;40.360;2023-12-22T14:32:35;9.23;;;5.15;;
26486;SDS011;14425;56.136;40.360;2023-12-22T14:35:00;10.95;;;6.13;;
26486;SDS011;14425;56.136;40.360;2023-12-22T14:37:26;9.50;;;5.57;;
26486;SDS011;14425;56.136;40.360;2023-12-22T14:39:54;11.85;;;6.13;;
26486;SDS011;14425;56.136;40.360;2023-12-22T14:42:19;10.93;;;5.55;;
26486;SDS011;14425;56.136;40.360;2023-12-22T14:44:44;11.60;;;5.47;;
26486;SDS011;14425;56.136;40.360;2023-12-22T14:47:10;11.35;;;6.15;;
26486;SDS011;14425;56.136;40.360;2023-12-22T14:49:35;10.93;;;6.85;;
26486;SDS011;14425;56.136;40.360;2023-12-22T14:52:01;10.15;;;6.45;;
26486;SDS011;14425;56.136;40.360;2023-12-22T14:54:26;13.25;;;6.68;;